Time;durP1;ratioP1;P1;durP2;ratioP2;P2;SDS_P1;SDS_P2;PMS_P1;PMS_P2;Temp;Humidity;BMP_temperature;BMP_pressure;BME280_temperature;BME280_humidity;BME280_pressure;Samples;Min_cycle;Max_cycle;Signal;HPM_P1;HPM_P2
2021/01/23 00:00:52;;;;;;;64.13;42.80;;;;;;;6.63;74.74;98092.34;4941267;28;96822;-67
2021/01/23 00:03:19;;;;;;;59.20;40.13;;;;;;;6.71;74.76;98101.28;4941316;28;99412;-67
2021/01/23 00:05:46;;;;;;;55.78;37.25;;;;;;;6.74;74.54;98095.88;4938966;28;98483;-67
2021/01/23 00:08:12;;;;;;;58.20;38.13;;;;;;;6.79;74.38;98078.25;4942303;28;96753;-66
2021/01/23 00:10:39;;;;;;;52.97;36.63;;;;;;;6.82;74.86;98072.88;4941847;28;98482;-67
2021/01/23 00:13:05;;;;;;;53.33;35.10;;;;;;;6.89;74.75;98073.28;4925229;28;98952;-67
2021/01/23 00:15:31;;;;;;;55.92;39.92;;;;;;;6.87;75.13;98059.63;4940676;28;101103;-67
2021/01/23 00:17:58;;;;;;;66.18;37.95;;;;;;;6.82;75.78;98080.66;4943295;28;96688;-67
2021/01/23 00:20:24;;;;;;;47.58;35.00;;;;;;;6.86;75.82;98094.19;4942889;28;97188;-68
2021/01/23 00:22:51;;;;;;;44.92;33.78;;;;;;;6.94;75.91;98091.09;4936931;28;98377;-66
2021/01/23 00:25:17;;;;;;;55.60;36.90;;;;;;;6.83;76.73;98082.28;4925757;28;97904;-66
2021/01/23 00:27:43;;;;;;;51.50;34.35;;;;;;;6.81;76.78;98078.97;4941956;28;97682;-66
2021/01/23 00:30:10;;;;;;;48.25;35.35;;;;;;;6.92;76.64;98069.63;4940788;28;97759;-66
2021/01/23 00:32:40;;;;;;;50.67;36.70;;;;;;;6.92;76.42;98061.84;4939981;28;98673;-67
2021/01/23 00:35:07;;;;;;;48.05;30.25;;;;;;;7.00;76.01;98059.56;4940403;28;98638;-66
2021/01/23 00:37:34;;;;;;;41.35;32.00;;;;;;;7.04;76.32;98043.72;4939726;28;96796;-66
2021/01/23 00:40:00;;;;;;;44.53;30.70;;;;;;;7.13;76.30;98038.81;4944338;28;99284;-66
2021/01/23 00:42:28;;;;;;;44.00;32.35;;;;;;;7.06;76.17;98053.97;4941505;28;98620;-66
2021/01/23 00:44:54;;;;;;;52.45;37.00;;;;;;;6.71;76.34;98059.84;4940665;28;98581;-66
2021/01/23 00:47:21;;;;;;;57.53;37.38;;;;;;;6.56;76.74;98074.66;4939500;28;97856;-67
2021/01/23 00:49:47;;;;;;;53.85;35.60;;;;;;;6.66;76.27;98079.19;4931528;28;97590;-66
2021/01/23 00:52:14;;;;;;;58.63;39.03;;;;;;;6.74;76.20;98066.56;4946336;28;99956;-66
2021/01/23 00:54:41;;;;;;;56.38;36.85;;;;;;;6.57;76.76;98050.44;4931120;28;100294;-66
2021/01/23 00:57:08;;;;;;;54.88;37.75;;;;;;;6.56;77.30;98035.84;4929129;28;97353;-67
2021/01/23 00:59:34;;;;;;;55.05;37.92;;;;;;;6.60;77.18;98018.31;4924949;28;97592;-66
2021/01/23 01:02:01;;;;;;;53.95;37.95;;;;;;;6.49;77.10;98016.47;4939839;28;98409;-66
2021/01/23 01:04:37;;;;;;;53.03;37.03;;;;;;;6.75;76.42;98006.88;4924934;28;100170;-66
2021/01/23 01:07:03;;;;;;;62.35;38.55;;;;;;;6.69;76.40;98015.09;4941690;28;97474;-67
2021/01/23 01:09:30;;;;;;;51.90;38.38;;;;;;;6.77;76.22;98030.09;4939928;28;97531;-67
2021/01/23 01:11:56;;;;;;;52.88;37.17;;;;;;;6.74;76.35;98036.31;4944505;28;98576;-66
2021/01/23 01:14:23;;;;;;;47.95;34.08;;;;;;;6.78;76.77;98037.75;4942464;28;98476;-68
2021/01/23 01:16:49;;;;;;;56.92;37.03;;;;;;;6.81;76.69;98039.28;4944807;28;97429;-68
2021/01/23 01:19:15;;;;;;;51.30;34.70;;;;;;;6.76;76.92;98037.03;4945245;28;96803;-68
2021/01/23 01:21:42;;;;;;;50.83;35.90;;;;;;;6.81;77.12;98019.41;4940782;28;98683;-68
2021/01/23 01:24:08;;;;;;;53.83;35.78;;;;;;;6.77;76.84;98018.00;4943660;28;100509;-68
2021/01/23 01:26:35;;;;;;;53.67;36.97;;;;;;;6.64;77.74;98019.75;4946669;28;97227;-68
2021/01/23 01:29:03;;;;;;;57.55;38.60;;;;;;;6.78;76.82;98017.03;4943935;28;96817;-69
2021/01/23 01:31:29;;;;;;;55.90;37.17;;;;;;;6.66;76.68;98007.56;4943860;28;98473;-69
2021/01/23 01:33:55;;;;;;;60.38;40.60;;;;;;;6.54;76.83;98003.19;4943383;28;98660;-69
2021/01/23 01:36:22;;;;;;;61.63;40.28;;;;;;;6.46;76.49;98010.69;4925502;28;98245;-69
2021/01/23 01:38:48;;;;;;;62.20;40.47;;;;;;;6.65;76.16;97994.69;4943150;28;97345;-69
2021/01/23 01:41:14;;;;;;;64.00;37.42;;;;;;;6.59;75.91;97998.53;4939837;28;98493;-69
2021/01/23 01:43:44;;;;;;;58.22;37.30;;;;;;;6.46;76.46;97990.81;4942950;28;98617;-69
2021/01/23 01:46:10;;;;;;;66.70;41.92;;;;;;;6.23;76.72;97987.22;4913905;28;97595;-70
2021/01/23 01:48:37;;;;;;;61.10;39.58;;;;;;;6.41;76.45;97992.06;4928535;28;96709;-69
2021/01/23 01:51:04;;;;;;;61.08;40.17;;;;;;;6.44;76.36;97971.94;4945681;28;98523;-69
2021/01/23 01:53:30;;;;;;;57.05;40.38;;;;;;;6.54;75.90;97964.38;4927651;28;97725;-69
2021/01/23 01:55:56;;;;;;;66.72;39.22;;;;;;;6.52;76.27;97948.97;4927320;28;96759;-69
2021/01/23 01:58:23;;;;;;;63.53;39.42;;;;;;;6.59;75.65;97949.34;4912506;28;96749;-69
2021/01/23 02:00:49;;;;;;;58.38;37.75;;;;;;;6.49;75.79;97956.09;4943077;28;98617;-65
2021/01/23 02:03:28;;;;;;;58.10;38.35;;;;;;;6.52;75.67;97953.31;4941561;28;98717;-67
2021/01/23 02:06:12;;;;;;;53.13;38.25;;;;;;;6.52;75.87;97937.78;4941086;28;97224;-67
2021/01/23 02:08:47;;;;;;;59.85;39.60;;;;;;;6.57;76.09;97936.53;4944751;28;96812;-67
2021/01/23 02:11:32;;;;;;;53.10;33.97;;;;;;;6.68;75.84;97938.34;4945592;28;98761;-67
2021/01/23 02:14:17;;;;;;;;;;;;;;;6.57;75.86;97928.75;4944311;28;98647;-67
2021/01/23 02:16:46;;;;;;;48.53;32.28;;;;;;;6.61;75.76;97919.03;4942161;28;97585;-67
2021/01/23 02:19:35;;;;;;;54.97;31.85;;;;;;;6.69;75.96;97918.47;4940511;28;96814;-67
2021/01/23 02:22:40;;;;;;;55.58;38.45;;;;;;;6.76;76.06;97925.69;4939843;28;98610;-67
2021/01/23 02:25:06;;;;;;;51.63;36.97;;;;;;;6.73;76.14;97925.91;4929231;28;99334;-67
2021/01/23 02:27:55;;;;;;;54.03;37.88;;;;;;;6.67;76.31;97904.81;4907646;28;96694;-67
2021/01/23 02:30:24;;;;;;;56.47;38.42;;;;;;;6.70;76.34;97900.22;4925073;28;97572;-68
2021/01/23 02:32:55;;;;;;;56.55;39.03;;;;;;;6.72;76.39;97900.16;4923643;28;98464;-68
2021/01/23 02:35:22;;;;;;;56.85;36.17;;;;;;;6.68;76.31;97896.94;4941486;28;101348;-67
2021/01/23 02:37:48;;;;;;;61.45;40.42;;;;;;;6.69;76.28;97897.75;4923321;28;96987;-67
2021/01/23 02:40:14;;;;;;;59.78;38.83;;;;;;;6.60;76.65;97893.22;4925682;28;98001;-68
2021/01/23 02:42:41;;;;;;;59.67;41.55;;;;;;;6.53;76.87;97885.91;4944261;28;99451;-67
2021/01/23 02:45:09;;;;;;;51.60;35.28;;;;;;;6.59;76.54;97891.59;4944468;28;98386;-67
2021/01/23 02:47:35;;;;;;;52.92;34.05;;;;;;;6.65;75.66;97886.78;4942356;28;97307;-67
2021/01/23 02:50:06;;;;;;;55.38;34.42;;;;;;;6.63;76.03;97896.44;4941472;28;97011;-67
2021/01/23 02:52:58;;;;;;;60.53;38.72;;;;;;;6.48;76.26;97890.56;4942749;28;98861;-67
2021/01/23 02:55:25;;;;;;;57.05;37.20;;;;;;;6.51;76.03;97894.72;4911041;28;98802;-68
2021/01/23 02:57:52;;;;;;;53.35;35.33;;;;;;;6.46;76.34;97902.81;4942136;28;97431;-67
2021/01/23 03:00:18;;;;;;;53.97;34.65;;;;;;;6.50;76.21;97896.50;4923205;28;99603;-67
2021/01/23 03:02:54;;;;;;;55.75;39.60;;;;;;;6.53;75.98;97888.50;4912029;28;98639;-68
2021/01/23 03:05:27;;;;;;;59.60;39.05;;;;;;;6.52;75.90;97892.03;4911967;28;99383;-68
2021/01/23 03:07:54;;;;;;;61.53;39.40;;;;;;;6.51;76.16;97889.56;4909067;28;96643;-68
2021/01/23 03:10:41;;;;;;;51.53;35.05;;;;;;;6.45;77.09;97897.75;4909910;28;98002;-68
2021/01/23 03:13:08;;;;;;;54.03;37.28;;;;;;;6.52;76.12;97901.56;4926676;28;98783;-68
2021/01/23 03:15:35;;;;;;;57.13;35.33;;;;;;;6.57;76.22;97902.88;4944541;28;98639;-68
2021/01/23 03:18:02;;;;;;;50.72;32.63;;;;;;;6.49;76.45;97899.16;4944866;28;99156;-68
2021/01/23 03:20:29;;;;;;;52.20;33.60;;;;;;;6.62;75.99;97910.31;4940256;28;97140;-68
2021/01/23 03:22:59;;;;;;;47.28;30.88;;;;;;;6.46;76.25;97897.63;4940845;28;98437;-68
2021/01/23 03:25:25;;;;;;;38.92;28.13;;;;;;;6.42;76.91;97913.47;4940579;28;98615;-68
2021/01/23 03:27:52;;;;;;;38.97;26.67;;;;;;;6.56;76.11;97914.16;4943902;28;97393;-67
2021/01/23 03:30:19;;;;;;;37.47;25.23;;;;;;;6.52;76.38;97923.09;4941864;28;96713;-68
2021/01/23 03:32:45;;;;;;;37.38;24.40;;;;;;;6.33;77.67;97927.06;4944164;28;98776;-68
2021/01/23 03:35:12;;;;;;;31.00;22.27;;;;;;;6.52;76.25;97935.19;4940074;28;98525;-68
2021/01/23 03:37:40;;;;;;;28.42;19.40;;;;;;;6.48;76.31;97944.09;4940413;28;97610;-68
2021/01/23 03:40:06;;;;;;;23.52;18.13;;;;;;;6.50;76.27;97955.19;4941897;28;97985;-68
2021/01/23 03:42:33;;;;;;;19.52;15.95;;;;;;;6.40;76.01;97959.34;4941028;28;98574;-68
2021/01/23 03:45:00;;;;;;;16.50;14.75;;;;;;;6.60;76.04;97965.72;4937739;28;98502;-68
2021/01/23 03:47:26;;;;;;;18.17;14.02;;;;;;;6.49;75.49;97971.63;4939577;28;99748;-68
2021/01/23 03:49:53;;;;;;;14.65;11.38;;;;;;;6.54;75.63;97975.56;4942429;28;100622;-67
2021/01/23 03:52:19;;;;;;;11.27;9.63;;;;;;;6.57;75.65;97982.31;4943869;28;98613;-67
2021/01/23 03:54:46;;;;;;;14.77;9.98;;;;;;;6.38;75.75;98000.03;4944889;28;99908;-67
2021/01/23 03:57:12;;;;;;;9.43;8.43;;;;;;;6.41;75.12;97992.06;4938113;28;99215;-67
2021/01/23 03:59:39;;;;;;;8.88;7.97;;;;;;;6.37;75.85;98006.13;4937731;28;96812;-67
2021/01/23 04:02:06;;;;;;;9.98;8.43;;;;;;;6.39;75.52;98007.69;4940683;28;98412;-67
2021/01/23 04:04:32;;;;;;;6.68;5.97;;;;;;;6.29;75.60;98020.44;4937560;28;98465;-67
2021/01/23 04:06:59;;;;;;;10.38;8.52;;;;;;;6.23;75.58;98031.19;4940434;28;97439;-67
2021/01/23 04:09:25;;;;;;;7.15;6.43;;;;;;;6.39;75.59;98037.91;4940967;28;97793;-67
2021/01/23 04:11:52;;;;;;;6.90;5.82;;;;;;;6.50;74.83;98038.03;4941035;28;97633;-67
2021/01/23 04:14:18;;;;;;;7.60;6.30;;;;;;;6.33;74.91;98040.91;4940859;28;98507;-67
2021/01/23 04:16:48;;;;;;;8.05;5.40;;;;;;;6.32;75.39;98040.09;4941305;28;97211;-67
2021/01/23 04:19:16;;;;;;;5.75;5.15;;;;;;;6.37;75.21;98050.13;4940294;28;98414;-67
2021/01/23 04:21:42;;;;;;;5.00;4.55;;;;;;;6.34;75.48;98052.91;4941966;28;97523;-67
2021/01/23 04:24:09;;;;;;;6.38;5.03;;;;;;;6.39;75.25;98061.19;4940019;28;100811;-68
2021/01/23 04:26:36;;;;;;;4.80;4.40;;;;;;;6.35;75.13;98062.34;4942071;28;97702;-67
2021/01/23 04:29:03;;;;;;;5.13;4.63;;;;;;;6.40;75.13;98060.28;4937686;28;97245;-67
2021/01/23 04:31:29;;;;;;;5.55;5.00;;;;;;;6.41;74.99;98065.34;4937894;28;98480;-67
2021/01/23 04:33:56;;;;;;;5.25;4.75;;;;;;;6.47;74.48;98069.28;4937519;28;98634;-67
2021/01/23 04:36:22;;;;;;;6.00;4.47;;;;;;;6.34;74.93;98071.03;4943114;28;96771;-67
2021/01/23 04:38:48;;;;;;;5.78;3.95;;;;;;;6.38;74.79;98075.06;4947704;28;97534;-67
2021/01/23 04:41:15;;;;;;;4.95;4.50;;;;;;;6.30;75.18;98076.41;4949396;28;98655;-67
2021/01/23 04:43:43;;;;;;;4.72;4.03;;;;;;;6.33;75.72;98077.13;4943954;28;98741;-68
2021/01/23 04:46:10;;;;;;;4.38;3.97;;;;;;;6.25;75.99;98080.25;4943112;28;96615;-67
2021/01/23 04:48:36;;;;;;;3.80;3.50;;;;;;;6.32;75.47;98075.47;4922573;28;97872;-67
2021/01/23 04:51:03;;;;;;;4.18;3.53;;;;;;;6.49;75.27;98086.34;4928585;28;98450;-68
2021/01/23 04:53:29;;;;;;;5.68;4.13;;;;;;;6.50;74.82;98074.25;4943814;28;98358;-68
2021/01/23 04:55:57;;;;;;;4.32;3.80;;;;;;;6.52;74.75;98075.78;4942928;28;97643;-68
2021/01/23 04:58:23;;;;;;;4.72;4.18;;;;;;;6.42;75.14;98079.94;4943222;28;98254;-67
2021/01/23 05:00:49;;;;;;;4.10;3.53;;;;;;;6.37;75.38;98084.59;4944125;28;98601;-67
2021/01/23 05:03:16;;;;;;;4.40;3.33;;;;;;;6.48;75.50;98096.81;4924562;28;98798;-67
2021/01/23 05:05:42;;;;;;;4.00;3.60;;;;;;;6.54;74.97;98092.03;4942004;28;96850;-67
2021/01/23 05:08:10;;;;;;;3.83;3.35;;;;;;;6.51;75.18;98101.78;4927927;28;98102;-68
2021/01/23 05:10:38;;;;;;;4.47;4.07;;;;;;;6.66;75.00;98108.53;4946413;28;100456;-68
2021/01/23 05:13:14;;;;;;;4.22;3.88;;;;;;;6.70;74.75;98112.53;4942467;28;98521;-67
2021/01/23 05:15:44;;;;;;;3.28;2.97;;;;;;;6.74;74.61;98108.81;4945707;28;99217;-67
2021/01/23 05:18:12;;;;;;;4.63;3.65;;;;;;;6.77;74.52;98121.56;4943579;28;96900;-67
2021/01/23 05:20:48;;;;;;;3.45;3.13;;;;;;;6.86;74.31;98130.44;4942154;28;98692;-67
2021/01/23 05:23:15;;;;;;;4.57;3.85;;;;;;;6.87;74.29;98136.44;4944197;28;98608;-67
2021/01/23 05:25:43;;;;;;;3.47;3.17;;;;;;;6.85;74.37;98141.75;4940476;28;97341;-67
2021/01/23 05:28:11;;;;;;;3.30;2.90;;;;;;;6.85;74.35;98136.56;4942597;28;97183;-67
2021/01/23 05:30:50;;;;;;;3.33;3.03;;;;;;;6.82;74.32;98142.78;4941431;28;99209;-66
2021/01/23 05:33:23;;;;;;;3.58;3.00;;;;;;;6.83;74.57;98141.03;4945595;28;98563;-66
2021/01/23 05:36:07;;;;;;;3.28;2.92;;;;;;;6.74;74.98;98137.28;4944654;28;96690;-67
2021/01/23 05:38:36;;;;;;;3.55;2.97;;;;;;;6.80;74.88;98149.81;4950514;28;99193;-67
2021/01/23 05:41:08;;;;;;;3.88;3.15;;;;;;;6.78;75.01;98141.34;4950727;28;98452;-67
2021/01/23 05:43:49;;;;;;;4.45;3.58;;;;;;;6.91;74.33;98141.31;4952559;28;98417;-67
2021/01/23 05:46:29;;;;;;;3.50;3.20;;;;;;;6.98;74.10;98146.94;4951219;28;97008;-68
2021/01/23 05:48:56;;;;;;;10.82;3.58;;;;;;;6.87;74.41;98149.41;4944465;28;96949;-67
2021/01/23 05:51:22;;;;;;;5.00;2.95;;;;;;;6.85;74.71;98152.09;4945790;28;98626;-67
2021/01/23 05:53:49;;;;;;;3.30;3.00;;;;;;;6.90;74.69;98156.97;4945901;28;98457;-67
2021/01/23 05:56:15;;;;;;;3.40;3.10;;;;;;;6.92;74.48;98153.34;4945069;28;97111;-67
2021/01/23 05:58:43;;;;;;;2.83;2.58;;;;;;;6.98;74.51;98159.88;4947848;28;96788;-66
2021/01/23 06:01:13;;;;;;;4.18;3.20;;;;;;;6.99;74.77;98154.59;4941234;28;98514;-67
2021/01/23 06:03:58;;;;;;;3.88;2.92;;;;;;;7.05;74.70;98163.69;4949351;28;98494;-66
2021/01/23 06:06:25;;;;;;;;;;;;;;;7.07;74.44;98156.66;4947907;28;96984;-67
2021/01/23 06:08:52;;;;;;;2.90;2.70;;;;;;;7.08;74.23;98163.47;4949787;28;96692;-66
2021/01/23 06:11:18;;;;;;;3.88;3.00;;;;;;;7.06;74.42;98160.16;4941519;28;98459;-66
2021/01/23 06:13:56;;;;;;;3.08;2.78;;;;;;;7.00;74.87;98158.00;4952678;28;98303;-66
2021/01/23 06:16:32;;;;;;;2.92;2.72;;;;;;;7.04;75.13;98162.06;4949962;28;96590;-66
2021/01/23 06:19:05;;;;;;;3.08;2.78;;;;;;;7.01;75.24;98168.25;4951531;28;96622;-65
2021/01/23 06:21:43;;;;;;;4.18;3.55;;;;;;;7.05;75.12;98166.28;4949648;28;98641;-65
2021/01/23 06:24:10;;;;;;;3.10;2.80;;;;;;;6.97;75.50;98173.75;4951031;28;98564;-65
2021/01/23 06:26:52;;;;;;;3.38;3.08;;;;;;;7.04;75.13;98175.00;4950026;28;96776;-66
2021/01/23 06:29:40;;;;;;;2.97;2.75;;;;;;;7.08;75.01;98181.59;4953143;28;96594;-66
2021/01/23 06:32:12;;;;;;;2.90;2.70;;;;;;;7.17;74.69;98185.34;4943166;28;98400;-65
2021/01/23 06:34:46;;;;;;;3.08;2.78;;;;;;;7.08;74.68;98185.06;4946398;28;98413;-66
2021/01/23 06:37:19;;;;;;;3.22;2.80;;;;;;;7.00;75.01;98191.69;4944433;28;96746;-66
2021/01/23 06:40:03;;;;;;;3.33;3.08;;;;;;;7.04;74.69;98195.72;4949356;28;98162;-66
2021/01/23 06:42:31;;;;;;;3.40;3.00;;;;;;;7.03;75.30;98197.50;4943255;28;97560;-67
2021/01/23 06:45:11;;;;;;;3.78;3.38;;;;;;;7.11;74.83;98201.31;4946093;28;99080;-67
2021/01/23 06:47:41;;;;;;;3.75;3.17;;;;;;;7.07;74.98;98198.09;4949032;28;97793;-66
2021/01/23 06:50:08;;;;;;;3.78;3.40;;;;;;;7.11;74.86;98196.97;4946910;28;97407;-68
2021/01/23 06:52:47;;;;;;;4.15;3.83;;;;;;;7.04;75.21;98203.50;4947472;28;98665;-65
2021/01/23 06:55:14;;;;;;;3.72;3.40;;;;;;;7.03;75.43;98201.81;4924082;28;100509;-68
2021/01/23 06:57:45;;;;;;;3.22;2.92;;;;;;;7.08;75.27;98202.34;4943267;28;96587;-68
2021/01/23 07:00:12;;;;;;;3.28;3.00;;;;;;;7.03;75.69;98214.78;4941123;28;98390;-66
2021/01/23 07:02:39;;;;;;;3.42;3.10;;;;;;;7.11;75.48;98216.84;4944499;28;98504;-67
2021/01/23 07:05:07;;;;;;;3.33;3.08;;;;;;;7.09;75.49;98227.34;4946510;28;98654;-68
2021/01/23 07:07:37;;;;;;;3.20;2.85;;;;;;;7.11;75.45;98230.63;4951355;28;96509;-68
2021/01/23 07:10:06;;;;;;;3.10;2.90;;;;;;;7.19;75.58;98238.75;4950195;28;96903;-71
2021/01/23 07:12:45;;;;;;;3.25;2.95;;;;;;;7.24;75.21;98231.44;4950389;28;98600;-67
2021/01/23 07:15:33;;;;;;;3.72;3.40;;;;;;;7.16;75.38;98236.34;4947402;28;98532;-68
2021/01/23 07:18:20;;;;;;;3.28;2.88;;;;;;;7.19;75.75;98237.88;4950386;28;96762;-71
2021/01/23 07:20:46;;;;;;;3.15;2.85;;;;;;;7.19;75.20;98241.31;4945901;28;96704;-68
2021/01/23 07:23:14;;;;;;;3.65;3.35;;;;;;;7.24;75.70;98241.00;4917737;28;98487;-67
2021/01/23 07:25:40;;;;;;;5.00;3.85;;;;;;;7.16;76.16;98238.94;4949876;28;98573;-66
2021/01/23 07:28:06;;;;;;;3.55;3.25;;;;;;;7.18;75.87;98237.06;4950334;28;96621;-67
2021/01/23 07:30:33;;;;;;;6.40;4.10;;;;;;;7.16;76.12;98246.72;4950611;28;97058;-66
2021/01/23 07:32:59;;;;;;;5.22;4.28;;;;;;;7.22;75.84;98242.88;4949605;28;98551;-67
2021/01/23 07:35:29;;;;;;;4.25;3.85;;;;;;;7.22;75.23;98246.28;4950990;28;98651;-68
2021/01/23 07:37:59;;;;;;;4.60;4.20;;;;;;;7.16;76.22;98246.72;4918436;28;97014;-68
2021/01/23 07:40:29;;;;;;;5.50;4.88;;;;;;;7.18;75.79;98257.78;4918610;28;96872;-68
2021/01/23 07:43:00;;;;;;;5.85;5.25;;;;;;;7.25;76.27;98259.03;4950177;28;98591;-68
2021/01/23 07:45:26;;;;;;;6.75;5.25;;;;;;;7.29;75.90;98259.66;4949798;28;98617;-68
2021/01/23 07:47:54;;;;;;;10.45;6.50;;;;;;;7.34;75.88;98265.34;4949581;28;96684;-68
2021/01/23 07:50:20;;;;;;;9.65;5.30;;;;;;;7.37;75.79;98262.56;4950210;28;96637;-66
2021/01/23 07:52:50;;;;;;;8.90;6.35;;;;;;;7.33;76.47;98267.13;4950363;28;97644;-68
2021/01/23 07:55:16;;;;;;;4.32;3.58;;;;;;;7.44;75.60;98268.97;4949485;28;97504;-67
2021/01/23 07:57:45;;;;;;;4.28;3.83;;;;;;;7.46;75.88;98271.47;4948312;28;96558;-68
2021/01/23 08:00:20;;;;;;;4.95;4.45;;;;;;;7.39;76.61;98272.81;4917440;28;96727;-67
2021/01/23 08:02:53;;;;;;;5.22;4.22;;;;;;;7.50;76.14;98278.09;4946786;28;98943;-68
2021/01/23 08:05:20;;;;;;;4.97;3.35;;;;;;;7.60;75.48;98277.34;4942372;28;98638;-71
2021/01/23 08:07:46;;;;;;;6.97;3.45;;;;;;;7.64;75.58;98285.75;4945684;28;96665;-75
2021/01/23 08:10:17;;;;;;;2.22;1.92;;;;;;;7.71;74.68;98281.78;4950072;28;96614;-73
2021/01/23 08:12:57;;;;;;;2.97;2.75;;;;;;;7.71;74.71;98283.56;4950691;28;97578;-72
2021/01/23 08:15:25;;;;;;;2.55;2.35;;;;;;;7.67;75.81;98290.75;4949852;28;98373;-71
2021/01/23 08:17:51;;;;;;;3.55;2.72;;;;;;;7.69;76.08;98288.03;4949345;28;96951;-70
2021/01/23 08:20:29;;;;;;;2.22;2.08;;;;;;;7.74;75.15;98296.34;4953464;28;96742;-71
2021/01/23 08:23:11;;;;;;;6.93;3.63;;;;;;;7.75;75.98;98301.41;4949583;28;98763;-70
2021/01/23 08:25:51;;;;;;;3.13;2.78;;;;;;;7.75;75.38;98301.41;4943636;28;98787;-69
2021/01/23 08:28:43;;;;;;;4.32;3.03;;;;;;;7.81;76.22;98308.75;4946660;28;96597;-69
2021/01/23 08:31:19;;;;;;;4.53;3.95;;;;;;;7.80;75.70;98317.47;4945588;28;97324;-68
2021/01/23 08:33:52;;;;;;;3.30;3.03;;;;;;;7.72;76.65;98319.75;4944480;28;98675;-68
2021/01/23 08:36:18;;;;;;;3.78;2.70;;;;;;;7.85;76.73;98320.59;4949945;28;98473;-68
2021/01/23 08:38:46;;;;;;;5.22;3.35;;;;;;;7.91;76.62;98324.50;4941908;28;96659;-68
2021/01/23 08:41:13;;;;;;;3.40;3.10;;;;;;;7.92;76.65;98330.53;4944183;28;96951;-67
2021/01/23 08:43:39;;;;;;;5.10;3.70;;;;;;;7.85;77.36;98338.75;4946410;28;98323;-68
2021/01/23 08:46:05;;;;;;;3.53;3.13;;;;;;;7.83;78.01;98337.19;4946064;28;98496;-68
2021/01/23 08:48:32;;;;;;;3.90;3.13;;;;;;;7.92;77.73;98340.91;4926553;28;96846;-68
2021/01/23 08:50:58;;;;;;;5.57;5.07;;;;;;;7.91;78.09;98344.44;4947014;28;98094;-66
2021/01/23 08:53:24;;;;;;;5.25;4.75;;;;;;;7.94;77.71;98339.06;4942639;28;98658;-68
2021/01/23 08:55:51;;;;;;;4.20;3.80;;;;;;;7.92;77.78;98348.69;4949698;28;98603;-68
2021/01/23 08:58:17;;;;;;;5.00;4.50;;;;;;;7.96;77.40;98352.75;4945786;28;96626;-72
2021/01/23 09:00:44;;;;;;;5.38;4.68;;;;;;;8.02;77.62;98347.13;4951816;28;96670;-72
2021/01/23 09:03:11;;;;;;;6.70;6.00;;;;;;;8.03;77.60;98357.38;4952132;28;98543;-74
2021/01/23 09:05:37;;;;;;;5.35;4.85;;;;;;;7.99;78.08;98355.09;4950724;28;98618;-69
2021/01/23 09:08:04;;;;;;;6.78;4.82;;;;;;;8.06;77.51;98354.59;4951433;28;97055;-69
2021/01/23 09:10:30;;;;;;;10.10;7.32;;;;;;;8.09;77.71;98354.34;4951228;28;96932;-69
2021/01/23 09:12:57;;;;;;;9.65;7.15;;;;;;;8.12;77.06;98366.31;4948905;28;98475;-68
2021/01/23 09:15:23;;;;;;;9.27;7.13;;;;;;;8.14;76.75;98367.00;4949486;28;98426;-69
2021/01/23 09:17:49;;;;;;;12.10;8.13;;;;;;;8.16;77.52;98370.34;4948383;28;96596;-69
2021/01/23 09:20:16;;;;;;;10.68;6.35;;;;;;;8.25;77.41;98369.69;4950406;28;97149;-71
2021/01/23 09:22:42;;;;;;;9.52;6.18;;;;;;;8.30;76.98;98374.56;4951586;28;98621;-73
2021/01/23 09:25:09;;;;;;;9.25;8.10;;;;;;;8.36;77.21;98380.19;4950819;28;98640;-73
2021/01/23 09:27:36;;;;;;;12.60;8.18;;;;;;;8.41;77.56;98390.22;4951560;28;96601;-72
2021/01/23 09:30:03;;;;;;;11.60;9.77;;;;;;;8.45;78.09;98393.47;4952034;28;96876;-73
2021/01/23 09:32:30;;;;;;;20.10;16.40;;;;;;;8.36;77.51;98402.72;4948116;28;98682;-72
2021/01/23 09:34:57;;;;;;;22.23;19.58;;;;;;;8.42;78.13;98402.31;4950716;28;98619;-71
2021/01/23 09:37:24;;;;;;;17.13;15.27;;;;;;;8.49;78.14;98402.69;4952595;28;96501;-74
2021/01/23 09:39:52;;;;;;;11.10;9.85;;;;;;;8.54;76.82;98411.00;4950312;28;96951;-74
2021/01/23 09:42:19;;;;;;;11.77;9.25;;;;;;;8.60;76.89;98413.16;4952247;28;98167;-74
2021/01/23 09:44:46;;;;;;;12.38;10.13;;;;;;;8.58;76.73;98417.63;4947705;28;98559;-73
2021/01/23 09:47:14;;;;;;;10.75;9.73;;;;;;;8.56;77.12;98419.50;4949444;28;96967;-73
2021/01/23 09:49:41;;;;;;;14.38;10.68;;;;;;;8.54;77.40;98417.00;4950718;28;96815;-74
2021/01/23 09:52:07;;;;;;;11.38;9.50;;;;;;;8.60;76.74;98413.16;4951143;28;99735;-75
2021/01/23 09:54:33;;;;;;;12.20;9.57;;;;;;;8.66;76.74;98423.09;4947447;28;98834;-74
2021/01/23 09:57:01;;;;;;;9.73;8.73;;;;;;;8.69;76.59;98420.28;4950916;28;96696;-74
2021/01/23 09:59:29;;;;;;;7.18;6.47;;;;;;;8.65;76.34;98422.28;4948646;28;96708;-74
2021/01/23 10:01:59;;;;;;;9.77;7.05;;;;;;;8.66;76.34;98423.09;4950760;28;98506;-67
2021/01/23 10:04:29;;;;;;;6.47;5.38;;;;;;;8.75;76.16;98435.44;4947517;28;98641;-69
2021/01/23 10:06:55;;;;;;;8.50;7.20;;;;;;;8.71;75.41;98440.97;4946018;28;98374;-66
2021/01/23 10:09:22;;;;;;;7.70;6.47;;;;;;;8.65;75.06;98450.84;4930659;28;97199;-67
2021/01/23 10:11:48;;;;;;;6.57;5.95;;;;;;;8.65;75.33;98450.00;4946992;28;98834;-68
2021/01/23 10:14:15;;;;;;;10.00;6.53;;;;;;;8.57;75.57;98466.13;4929855;28;98594;-67
2021/01/23 10:16:42;;;;;;;6.35;5.40;;;;;;;8.57;75.53;98471.31;4943071;28;97071;-67
2021/01/23 10:19:08;;;;;;;5.47;4.97;;;;;;;8.58;75.24;98469.56;4948449;28;97178;-69
2021/01/23 10:21:35;;;;;;;5.43;3.78;;;;;;;8.57;74.92;98470.50;4950361;28;98710;-70
2021/01/23 10:24:03;;;;;;;3.25;2.95;;;;;;;8.62;74.50;98473.59;4933397;28;98544;-74
2021/01/23 10:26:29;;;;;;;5.47;4.28;;;;;;;8.63;75.13;98472.69;4950091;28;96691;-75
2021/01/23 10:28:56;;;;;;;4.53;4.13;;;;;;;8.70;74.73;98475.66;4949732;28;96724;-74
2021/01/23 10:31:23;;;;;;;4.00;3.08;;;;;;;8.58;75.25;98485.16;4948074;28;97560;-72
2021/01/23 10:33:49;;;;;;;2.45;2.25;;;;;;;8.66;75.60;98485.44;4949544;28;98496;-74
2021/01/23 10:36:15;;;;;;;2.95;2.00;;;;;;;8.77;74.49;98493.31;4947900;28;96604;-74
2021/01/23 10:38:42;;;;;;;1.75;1.65;;;;;;;8.76;74.36;98496.84;4949003;28;96973;-74
2021/01/23 10:41:08;;;;;;;1.80;1.70;;;;;;;8.77;73.32;98501.09;4941350;28;98855;-73
2021/01/23 10:43:35;;;;;;;11.75;2.13;;;;;;;8.67;74.30;98507.88;4943468;28;98412;-72
2021/01/23 10:46:03;;;;;;;1.80;1.52;;;;;;;8.67;74.27;98510.47;4945132;28;96549;-72
2021/01/23 10:48:30;;;;;;;2.97;1.88;;;;;;;8.71;74.23;98509.31;4944382;28;96684;-71
2021/01/23 10:50:57;;;;;;;3.28;2.53;;;;;;;8.76;73.84;98522.81;4946955;28;97549;-70
2021/01/23 10:53:23;;;;;;;1.65;1.55;;;;;;;8.82;73.03;98518.97;4946332;28;97588;-70
2021/01/23 10:55:49;;;;;;;2.35;1.50;;;;;;;8.72;72.99;98521.38;4947808;28;96648;-73
2021/01/23 10:58:16;;;;;;;4.32;1.50;;;;;;;8.78;72.95;98522.72;4925432;28;96653;-73
2021/01/23 11:00:42;;;;;;;2.85;2.10;;;;;;;8.84;73.42;98523.13;4944426;28;98540;-74
2021/01/23 11:03:09;;;;;;;2.10;1.58;;;;;;;8.77;73.39;98529.69;4947415;28;98588;-74
2021/01/23 11:05:36;;;;;;;1.30;1.20;;;;;;;8.66;73.58;98529.59;4947480;28;96529;-73
2021/01/23 11:08:03;;;;;;;2.10;1.90;;;;;;;8.62;74.14;98539.34;4945770;28;96659;-73
2021/01/23 11:10:30;;;;;;;2.92;2.58;;;;;;;8.75;73.94;98536.75;4945432;28;97535;-72
2021/01/23 11:12:57;;;;;;;2.83;2.20;;;;;;;8.73;73.79;98541.22;4943943;28;97466;-73
2021/01/23 11:15:24;;;;;;;2.80;2.10;;;;;;;8.68;74.15;98543.28;4933565;28;96642;-74
2021/01/23 11:17:51;;;;;;;1.70;1.60;;;;;;;8.68;74.23;98542.47;4944258;28;97140;-74
2021/01/23 11:20:17;;;;;;;2.58;1.65;;;;;;;8.65;73.79;98543.53;4948450;28;98608;-74
2021/01/23 11:22:44;;;;;;;2.40;2.20;;;;;;;8.79;73.82;98548.59;4948335;28;98592;-75
2021/01/23 11:25:13;;;;;;;2.60;1.60;;;;;;;8.84;73.21;98543.06;4948098;28;96647;-74
2021/01/23 11:27:39;;;;;;;2.17;1.80;;;;;;;8.78;73.44;98549.53;4948282;28;97099;-74
2021/01/23 11:30:09;;;;;;;2.33;1.98;;;;;;;8.78;73.72;98544.31;4948144;28;98635;-74
2021/01/23 11:32:36;;;;;;;2.30;2.10;;;;;;;8.79;73.51;98560.75;4948342;28;97549;-71
2021/01/23 11:35:04;;;;;;;2.10;2.00;;;;;;;8.80;72.96;98554.63;4947695;28;97160;-73
2021/01/23 11:37:32;;;;;;;1.83;1.67;;;;;;;8.87;72.39;98564.47;4947007;28;97080;-74
2021/01/23 11:39:58;;;;;;;1.38;1.27;;;;;;;8.90;72.52;98568.66;4928422;28;98566;-73
2021/01/23 11:42:24;;;;;;;3.70;1.58;;;;;;;8.83;72.63;98572.59;4947505;28;98548;-68
2021/01/23 11:44:51;;;;;;;2.22;1.92;;;;;;;8.82;72.76;98569.16;4947527;28;96714;-70